sensor_id;sensor_type;location;lat;lon;timestamp;temperature;humidity
35497;DHT22;21609;49.298;6.844;2022-07-18T00:02:15;22.30;67.40
35497;DHT22;21609;49.298;6.844;2022-07-18T00:04:41;22.30;67.40
35497;DHT22;21609;49.298;6.844;2022-07-18T00:07:07;22.30;67.50
35497;DHT22;21609;49.298;6.844;2022-07-18T00:09:36;22.30;67.40
35497;DHT22;21609;49.298;6.844;2022-07-18T00:12:03;22.20;67.20
35497;DHT22;21609;49.298;6.844;2022-07-18T00:14:29;22.20;67.50
35497;DHT22;21609;49.298;6.844;2022-07-18T00:16:54;22.30;67.50
35497;DHT22;21609;49.298;6.844;2022-07-18T00:19:20;22.20;67.90
35497;DHT22;21609;49.298;6.844;2022-07-18T00:21:46;22.10;67.50
35497;DHT22;21609;49.298;6.844;2022-07-18T00:24:12;22.20;67.70
35497;DHT22;21609;49.298;6.844;2022-07-18T00:26:37;22.20;67.90
35497;DHT22;21609;49.298;6.844;2022-07-18T00:29:03;22.20;67.70
35497;DHT22;21609;49.298;6.844;2022-07-18T00:31:29;22.10;67.60
35497;DHT22;21609;49.298;6.844;2022-07-18T00:33:54;22.10;67.80
35497;DHT22;21609;49.298;6.844;2022-07-18T00:36:20;22.10;67.80
35497;DHT22;21609;49.298;6.844;2022-07-18T00:38:45;22.00;67.70
35497;DHT22;21609;49.298;6.844;2022-07-18T00:41:15;22.10;67.70
35497;DHT22;21609;49.298;6.844;2022-07-18T00:43:41;22.00;68.00
35497;DHT22;21609;49.298;6.844;2022-07-18T00:46:06;22.00;67.90
35497;DHT22;21609;49.298;6.844;2022-07-18T00:48:32;22.00;67.60
35497;DHT22;21609;49.298;6.844;2022-07-18T00:50:58;22.00;67.40
35497;DHT22;21609;49.298;6.844;2022-07-18T00:53:23;22.00;67.60
35497;DHT22;21609;49.298;6.844;2022-07-18T00:55:49;22.00;68.10
35497;DHT22;21609;49.298;6.844;2022-07-18T00:58:15;22.00;68.40
35497;DHT22;21609;49.298;6.844;2022-07-18T01:00:41;22.00;68.60
35497;DHT22;21609;49.298;6.844;2022-07-18T01:03:26;22.00;68.40
35497;DHT22;21609;49.298;6.844;2022-07-18T01:05:52;21.90;68.80
35497;DHT22;21609;49.298;6.844;2022-07-18T01:08:18;21.90;68.80
35497;DHT22;21609;49.298;6.844;2022-07-18T01:10:43;21.90;68.60
35497;DHT22;21609;49.298;6.844;2022-07-18T01:13:09;21.90;68.60
35497;DHT22;21609;49.298;6.844;2022-07-18T01:15:35;21.90;68.80
35497;DHT22;21609;49.298;6.844;2022-07-18T01:18:02;21.90;68.30
35497;DHT22;21609;49.298;6.844;2022-07-18T01:20:29;21.90;68.20
35497;DHT22;21609;49.298;6.844;2022-07-18T01:22:56;21.80;68.00
35497;DHT22;21609;49.298;6.844;2022-07-18T01:25:22;21.80;67.70
35497;DHT22;21609;49.298;6.844;2022-07-18T01:27:47;21.90;67.70
35497;DHT22;21609;49.298;6.844;2022-07-18T01:30:14;21.80;67.30
35497;DHT22;21609;49.298;6.844;2022-07-18T01:32:41;21.80;67.70
35497;DHT22;21609;49.298;6.844;2022-07-18T01:35:07;21.70;68.10
35497;DHT22;21609;49.298;6.844;2022-07-18T01:37:33;21.80;67.90
35497;DHT22;21609;49.298;6.844;2022-07-18T01:39:58;21.70;68.00
35497;DHT22;21609;49.298;6.844;2022-07-18T01:42:24;21.70;68.00
35497;DHT22;21609;49.298;6.844;2022-07-18T01:44:49;21.70;69.10
35497;DHT22;21609;49.298;6.844;2022-07-18T01:47:15;21.70;68.40
35497;DHT22;21609;49.298;6.844;2022-07-18T01:49:41;21.70;67.90
35497;DHT22;21609;49.298;6.844;2022-07-18T01:52:08;21.60;67.70
35497;DHT22;21609;49.298;6.844;2022-07-18T01:54:36;21.60;68.30
35497;DHT22;21609;49.298;6.844;2022-07-18T01:57:03;21.60;68.40
35497;DHT22;21609;49.298;6.844;2022-07-18T01:59:29;21.60;68.30
35497;DHT22;21609;49.298;6.844;2022-07-18T02:01:55;21.60;68.50
35497;DHT22;21609;49.298;6.844;2022-07-18T02:04:21;21.60;68.60
35497;DHT22;21609;49.298;6.844;2022-07-18T02:07:07;21.60;69.20
35497;DHT22;21609;49.298;6.844;2022-07-18T02:09:32;21.50;69.10
35497;DHT22;21609;49.298;6.844;2022-07-18T02:11:58;21.50;68.90
35497;DHT22;21609;49.298;6.844;2022-07-18T02:14:23;21.60;69.10
35497;DHT22;21609;49.298;6.844;2022-07-18T02:16:49;21.60;69.50
35497;DHT22;21609;49.298;6.844;2022-07-18T02:19:15;21.60;69.30
35497;DHT22;21609;49.298;6.844;2022-07-18T02:21:40;21.50;68.80
35497;DHT22;21609;49.298;6.844;2022-07-18T02:24:07;21.50;68.90
35497;DHT22;21609;49.298;6.844;2022-07-18T02:26:33;21.50;69.30
35497;DHT22;21609;49.298;6.844;2022-07-18T02:29:00;21.50;69.40
35497;DHT22;21609;49.298;6.844;2022-07-18T02:31:25;21.50;69.30
35497;DHT22;21609;49.298;6.844;2022-07-18T02:33:51;21.50;69.50
35497;DHT22;21609;49.298;6.844;2022-07-18T02:36:16;21.40;69.40
35497;DHT22;21609;49.298;6.844;2022-07-18T02:38:42;21.50;69.80
35497;DHT22;21609;49.298;6.844;2022-07-18T02:41:08;21.40;69.50
35497;DHT22;21609;49.298;6.844;2022-07-18T02:43:33;21.40;69.70
35497;DHT22;21609;49.298;6.844;2022-07-18T02:45:59;21.40;69.70
35497;DHT22;21609;49.298;6.844;2022-07-18T02:48:24;21.40;69.40
35497;DHT22;21609;49.298;6.844;2022-07-18T02:50:50;21.40;69.50
35497;DHT22;21609;49.298;6.844;2022-07-18T02:53:16;21.40;69.20
35497;DHT22;21609;49.298;6.844;2022-07-18T02:55:44;21.30;69.40
35497;DHT22;21609;49.298;6.844;2022-07-18T02:58:10;21.30;69.20
35497;DHT22;21609;49.298;6.844;2022-07-18T03:00:35;21.30;69.00
35497;DHT22;21609;49.298;6.844;2022-07-18T03:03:01;21.30;69.30
35497;DHT22;21609;49.298;6.844;2022-07-18T03:05:27;21.30;69.40
35497;DHT22;21609;49.298;6.844;2022-07-18T03:07:53;21.30;69.40
35497;DHT22;21609;49.298;6.844;2022-07-18T03:10:18;21.30;69.40
35497;DHT22;21609;49.298;6.844;2022-07-18T03:12:44;21.20;69.00
35497;DHT22;21609;49.298;6.844;2022-07-18T03:15:10;21.30;69.10
35497;DHT22;21609;49.298;6.844;2022-07-18T03:17:36;21.20;68.80
35497;DHT22;21609;49.298;6.844;2022-07-18T03:20:02;21.20;68.60
35497;DHT22;21609;49.298;6.844;2022-07-18T03:22:28;21.20;68.60
35497;DHT22;21609;49.298;6.844;2022-07-18T03:24:53;21.20;68.70
35497;DHT22;21609;49.298;6.844;2022-07-18T03:27:19;21.20;68.50
35497;DHT22;21609;49.298;6.844;2022-07-18T03:29:45;21.20;68.40
35497;DHT22;21609;49.298;6.844;2022-07-18T03:32:10;21.20;68.40
35497;DHT22;21609;49.298;6.844;2022-07-18T03:34:36;21.20;68.60
35497;DHT22;21609;49.298;6.844;2022-07-18T03:37:02;21.10;69.70
35497;DHT22;21609;49.298;6.844;2022-07-18T03:39:27;21.10;68.70
35497;DHT22;21609;49.298;6.844;2022-07-18T03:41:53;21.10;68.90
35497;DHT22;21609;49.298;6.844;2022-07-18T03:44:18;21.10;68.90
35497;DHT22;21609;49.298;6.844;2022-07-18T03:46:44;21.10;69.10
35497;DHT22;21609;49.298;6.844;2022-07-18T03:49:10;21.10;68.80
35497;DHT22;21609;49.298;6.844;2022-07-18T03:51:35;21.10;68.80
35497;DHT22;21609;49.298;6.844;2022-07-18T03:54:01;21.00;69.00
35497;DHT22;21609;49.298;6.844;2022-07-18T03:56:27;21.10;69.10
35497;DHT22;21609;49.298;6.844;2022-07-18T03:58:53;21.00;68.90
35497;DHT22;21609;49.298;6.844;2022-07-18T04:01:18;21.00;69.20
35497;DHT22;21609;49.298;6.844;2022-07-18T04:03:44;21.00;68.90
35497;DHT22;21609;49.298;6.844;2022-07-18T04:06:09;21.00;68.90
35497;DHT22;21609;49.298;6.844;2022-07-18T04:08:35;21.00;68.90
35497;DHT22;21609;49.298;6.844;2022-07-18T04:11:01;21.20;69.10
35497;DHT22;21609;49.298;6.844;2022-07-18T04:13:26;21.30;69.00
35497;DHT22;21609;49.298;6.844;2022-07-18T04:15:52;21.30;68.80
35497;DHT22;21609;49.298;6.844;2022-07-18T04:18:18;21.40;68.60
35497;DHT22;21609;49.298;6.844;2022-07-18T04:20:43;21.30;68.30
35497;DHT22;21609;49.298;6.844;2022-07-18T04:23:10;21.30;68.40
35497;DHT22;21609;49.298;6.844;2022-07-18T04:25:40;21.40;68.70
35497;DHT22;21609;49.298;6.844;2022-07-18T04:28:06;21.30;68.10
35497;DHT22;21609;49.298;6.844;2022-07-18T04:30:33;21.40;68.20
35497;DHT22;21609;49.298;6.844;2022-07-18T04:33:04;21.40;68.20
35497;DHT22;21609;49.298;6.844;2022-07-18T04:35:30;21.40;68.30
35497;DHT22;21609;49.298;6.844;2022-07-18T04:37:56;21.20;68.40
35497;DHT22;21609;49.298;6.844;2022-07-18T04:40:22;21.20;69.00
35497;DHT22;21609;49.298;6.844;2022-07-18T04:42:48;21.30;69.00
35497;DHT22;21609;49.298;6.844;2022-07-18T04:45:14;21.30;68.50
35497;DHT22;21609;49.298;6.844;2022-07-18T04:47:41;21.30;67.60
35497;DHT22;21609;49.298;6.844;2022-07-18T04:50:07;21.20;67.60
35497;DHT22;21609;49.298;6.844;2022-07-18T04:52:41;21.20;67.80
35497;DHT22;21609;49.298;6.844;2022-07-18T04:55:09;21.10;67.70
35497;DHT22;21609;49.298;6.844;2022-07-18T04:57:35;21.00;68.30
35497;DHT22;21609;49.298;6.844;2022-07-18T05:00:05;21.20;68.70
35497;DHT22;21609;49.298;6.844;2022-07-18T05:02:31;21.30;68.60
35497;DHT22;21609;49.298;6.844;2022-07-18T05:04:56;21.30;68.70
35497;DHT22;21609;49.298;6.844;2022-07-18T05:07:22;21.40;69.30
35497;DHT22;21609;49.298;6.844;2022-07-18T05:09:47;21.50;69.40
35497;DHT22;21609;49.298;6.844;2022-07-18T05:12:13;21.40;67.70
35497;DHT22;21609;49.298;6.844;2022-07-18T05:14:39;21.30;67.70
35497;DHT22;21609;49.298;6.844;2022-07-18T05:17:04;21.20;67.90
35497;DHT22;21609;49.298;6.844;2022-07-18T05:19:30;21.20;68.00
35497;DHT22;21609;49.298;6.844;2022-07-18T05:21:56;21.20;68.40
35497;DHT22;21609;49.298;6.844;2022-07-18T05:24:21;21.10;68.40
35497;DHT22;21609;49.298;6.844;2022-07-18T05:26:47;21.10;68.60
35497;DHT22;21609;49.298;6.844;2022-07-18T05:29:13;21.10;68.80
35497;DHT22;21609;49.298;6.844;2022-07-18T05:31:40;21.10;69.30
35497;DHT22;21609;49.298;6.844;2022-07-18T05:34:06;20.90;52.20
35497;DHT22;21609;49.298;6.844;2022-07-18T05:36:31;20.80;70.70
35497;DHT22;21609;49.298;6.844;2022-07-18T05:38:57;20.80;71.20
35497;DHT22;21609;49.298;6.844;2022-07-18T05:41:22;20.80;71.30
35497;DHT22;21609;49.298;6.844;2022-07-18T05:43:48;20.80;57.50
35497;DHT22;21609;49.298;6.844;2022-07-18T05:46:14;20.70;48.30
35497;DHT22;21609;49.298;6.844;2022-07-18T05:48:39;20.60;48.30
35497;DHT22;21609;49.298;6.844;2022-07-18T05:51:06;20.40;48.50
35497;DHT22;21609;49.298;6.844;2022-07-18T05:53:33;20.70;71.70
35497;DHT22;21609;49.298;6.844;2022-07-18T05:55:58;20.80;71.20
35497;DHT22;21609;49.298;6.844;2022-07-18T05:58:24;20.80;71.60
35497;DHT22;21609;49.298;6.844;2022-07-18T06:00:50;20.80;71.80
35497;DHT22;21609;49.298;6.844;2022-07-18T06:03:16;20.90;72.20
35497;DHT22;21609;49.298;6.844;2022-07-18T06:05:41;21.00;72.70
35497;DHT22;21609;49.298;6.844;2022-07-18T06:08:07;21.00;73.00
35497;DHT22;21609;49.298;6.844;2022-07-18T06:10:33;21.00;73.30
35497;DHT22;21609;49.298;6.844;2022-07-18T06:12:58;20.90;72.00
35497;DHT22;21609;49.298;6.844;2022-07-18T06:15:24;21.00;71.80
35497;DHT22;21609;49.298;6.844;2022-07-18T06:17:51;21.10;71.90
35497;DHT22;21609;49.298;6.844;2022-07-18T06:20:17;21.20;72.10
35497;DHT22;21609;49.298;6.844;2022-07-18T06:22:43;21.20;72.10
35497;DHT22;21609;49.298;6.844;2022-07-18T06:25:09;21.30;72.40
35497;DHT22;21609;49.298;6.844;2022-07-18T06:27:35;21.30;72.40
35497;DHT22;21609;49.298;6.844;2022-07-18T06:30:02;21.30;72.50
35497;DHT22;21609;49.298;6.844;2022-07-18T06:32:30;21.30;72.40
35497;DHT22;21609;49.298;6.844;2022-07-18T06:34:56;21.40;72.40
35497;DHT22;21609;49.298;6.844;2022-07-18T06:37:21;21.40;72.40
35497;DHT22;21609;49.298;6.844;2022-07-18T06:39:47;21.40;71.80
35497;DHT22;21609;49.298;6.844;2022-07-18T06:42:13;21.50;71.50
35497;DHT22;21609;49.298;6.844;2022-07-18T06:44:39;21.60;71.50
35497;DHT22;21609;49.298;6.844;2022-07-18T06:47:04;21.70;71.60
35497;DHT22;21609;49.298;6.844;2022-07-18T06:49:30;21.70;71.40
35497;DHT22;21609;49.298;6.844;2022-07-18T06:51:56;21.70;71.30
35497;DHT22;21609;49.298;6.844;2022-07-18T06:54:22;21.70;71.70
35497;DHT22;21609;49.298;6.844;2022-07-18T06:56:56;21.70;71.90
35497;DHT22;21609;49.298;6.844;2022-07-18T06:59:22;21.70;71.70
35497;DHT22;21609;49.298;6.844;2022-07-18T07:01:48;21.80;71.50
35497;DHT22;21609;49.298;6.844;2022-07-18T07:04:13;21.80;71.50
35497;DHT22;21609;49.298;6.844;2022-07-18T07:06:39;21.80;71.40
35497;DHT22;21609;49.298;6.844;2022-07-18T07:09:05;21.80;71.50
35497;DHT22;21609;49.298;6.844;2022-07-18T07:11:31;21.90;69.50
35497;DHT22;21609;49.298;6.844;2022-07-18T07:13:57;21.90;67.40
35497;DHT22;21609;49.298;6.844;2022-07-18T07:16:23;21.90;67.40
35497;DHT22;21609;49.298;6.844;2022-07-18T07:18:48;22.00;67.30
35497;DHT22;21609;49.298;6.844;2022-07-18T07:21:14;22.00;66.90
35497;DHT22;21609;49.298;6.844;2022-07-18T07:23:40;22.00;66.80
35497;DHT22;21609;49.298;6.844;2022-07-18T07:26:07;22.10;66.60
35497;DHT22;21609;49.298;6.844;2022-07-18T07:28:33;22.10;67.50
35497;DHT22;21609;49.298;6.844;2022-07-18T07:30:58;22.20;67.00
35497;DHT22;21609;49.298;6.844;2022-07-18T07:33:24;22.30;67.70
35497;DHT22;21609;49.298;6.844;2022-07-18T07:35:49;22.30;68.60
35497;DHT22;21609;49.298;6.844;2022-07-18T07:38:15;22.30;69.60
35497;DHT22;21609;49.298;6.844;2022-07-18T07:40:46;22.30;71.40
35497;DHT22;21609;49.298;6.844;2022-07-18T07:43:14;22.20;71.90
35497;DHT22;21609;49.298;6.844;2022-07-18T07:45:40;22.40;73.30
35497;DHT22;21609;49.298;6.844;2022-07-18T07:48:06;22.30;75.60
35497;DHT22;21609;49.298;6.844;2022-07-18T07:50:32;22.30;77.70
35497;DHT22;21609;49.298;6.844;2022-07-18T07:52:58;22.30;80.40
35497;DHT22;21609;49.298;6.844;2022-07-18T07:55:24;22.40;81.20
35497;DHT22;21609;49.298;6.844;2022-07-18T07:57:50;22.30;81.30
35497;DHT22;21609;49.298;6.844;2022-07-18T08:00:16;22.30;78.10
35497;DHT22;21609;49.298;6.844;2022-07-18T08:02:58;22.30;76.60
35497;DHT22;21609;49.298;6.844;2022-07-18T08:05:24;22.40;77.50
35497;DHT22;21609;49.298;6.844;2022-07-18T08:07:50;22.40;78.00
35497;DHT22;21609;49.298;6.844;2022-07-18T08:10:16;22.80;73.00
35497;DHT22;21609;49.298;6.844;2022-07-18T08:12:42;22.50;67.00
35497;DHT22;21609;49.298;6.844;2022-07-18T08:15:08;22.40;65.50
35497;DHT22;21609;49.298;6.844;2022-07-18T08:17:34;22.40;66.50
35497;DHT22;21609;49.298;6.844;2022-07-18T08:20:00;22.40;67.90
35497;DHT22;21609;49.298;6.844;2022-07-18T08:22:26;22.40;67.90
35497;DHT22;21609;49.298;6.844;2022-07-18T08:24:51;22.50;67.80
35497;DHT22;21609;49.298;6.844;2022-07-18T08:27:17;22.50;68.90
35497;DHT22;21609;49.298;6.844;2022-07-18T08:29:42;22.50;68.30
35497;DHT22;21609;49.298;6.844;2022-07-18T08:32:08;22.50;67.70
35497;DHT22;21609;49.298;6.844;2022-07-18T08:34:34;22.50;69.40
35497;DHT22;21609;49.298;6.844;2022-07-18T08:37:00;22.50;72.00
35497;DHT22;21609;49.298;6.844;2022-07-18T08:39:25;22.60;69.30
35497;DHT22;21609;49.298;6.844;2022-07-18T08:41:51;22.60;70.40
35497;DHT22;21609;49.298;6.844;2022-07-18T08:44:18;22.60;61.60
35497;DHT22;21609;49.298;6.844;2022-07-18T08:46:51;22.60;61.70
35497;DHT22;21609;49.298;6.844;2022-07-18T08:49:17;22.60;62.50
35497;DHT22;21609;49.298;6.844;2022-07-18T08:51:43;22.70;64.70
35497;DHT22;21609;49.298;6.844;2022-07-18T08:54:10;22.70;68.40
35497;DHT22;21609;49.298;6.844;2022-07-18T08:56:35;22.70;73.30
35497;DHT22;21609;49.298;6.844;2022-07-18T08:59:03;22.70;71.30
35497;DHT22;21609;49.298;6.844;2022-07-18T09:01:29;22.70;68.90
35497;DHT22;21609;49.298;6.844;2022-07-18T09:03:55;22.70;71.20
35497;DHT22;21609;49.298;6.844;2022-07-18T09:06:44;22.80;76.40
35497;DHT22;21609;49.298;6.844;2022-07-18T09:09:12;22.70;75.30
35497;DHT22;21609;49.298;6.844;2022-07-18T09:12:00;22.80;75.60
35497;DHT22;21609;49.298;6.844;2022-07-18T09:14:29;22.80;79.30
35497;DHT22;21609;49.298;6.844;2022-07-18T09:19:36;22.80;76.80
35497;DHT22;21609;49.298;6.844;2022-07-18T09:22:38;22.80;74.60
35497;DHT22;21609;49.298;6.844;2022-07-18T09:27:41;22.80;73.80
35497;DHT22;21609;49.298;6.844;2022-07-18T09:32:35;22.90;67.00
35497;DHT22;21609;49.298;6.844;2022-07-18T09:35:09;23.00;66.40
35497;DHT22;21609;49.298;6.844;2022-07-18T09:37:35;22.90;65.60
35497;DHT22;21609;49.298;6.844;2022-07-18T09:40:26;22.90;65.40
35497;DHT22;21609;49.298;6.844;2022-07-18T09:42:57;22.90;65.20
35497;DHT22;21609;49.298;6.844;2022-07-18T09:45:29;23.00;66.20
35497;DHT22;21609;49.298;6.844;2022-07-18T09:47:57;23.00;65.30
35497;DHT22;21609;49.298;6.844;2022-07-18T09:55:30;23.00;65.80
35497;DHT22;21609;49.298;6.844;2022-07-18T09:58:01;23.10;65.80
35497;DHT22;21609;49.298;6.844;2022-07-18T10:00:29;23.10;65.80
35497;DHT22;21609;49.298;6.844;2022-07-18T10:02:56;23.10;66.80
35497;DHT22;21609;49.298;6.844;2022-07-18T10:05:22;23.10;74.00
35497;DHT22;21609;49.298;6.844;2022-07-18T10:07:48;23.00;70.90
35497;DHT22;21609;49.298;6.844;2022-07-18T10:10:15;23.10;69.00
35497;DHT22;21609;49.298;6.844;2022-07-18T10:12:41;23.10;68.10
35497;DHT22;21609;49.298;6.844;2022-07-18T10:15:08;23.10;68.10
35497;DHT22;21609;49.298;6.844;2022-07-18T10:17:34;23.20;67.60
35497;DHT22;21609;49.298;6.844;2022-07-18T10:20:06;23.10;67.40
35497;DHT22;21609;49.298;6.844;2022-07-18T10:22:52;23.20;67.40
35497;DHT22;21609;49.298;6.844;2022-07-18T10:25:21;23.20;66.90
35497;DHT22;21609;49.298;6.844;2022-07-18T10:30:18;23.20;66.50
35497;DHT22;21609;49.298;6.844;2022-07-18T10:32:53;23.20;66.10
35497;DHT22;21609;49.298;6.844;2022-07-18T10:38:23;23.20;62.80
35497;DHT22;21609;49.298;6.844;2022-07-18T10:41:10;23.20;62.30
35497;DHT22;21609;49.298;6.844;2022-07-18T10:43:44;23.30;61.70
35497;DHT22;21609;49.298;6.844;2022-07-18T10:46:12;23.30;61.40
35497;DHT22;21609;49.298;6.844;2022-07-18T10:51:14;23.30;61.20
35497;DHT22;21609;49.298;6.844;2022-07-18T10:54:05;23.30;61.40
35497;DHT22;21609;49.298;6.844;2022-07-18T10:59:19;23.30;61.10
35497;DHT22;21609;49.298;6.844;2022-07-18T11:01:51;23.30;60.90
35497;DHT22;21609;49.298;6.844;2022-07-18T11:04:28;23.30;61.20
35497;DHT22;21609;49.298;6.844;2022-07-18T11:07:03;23.30;61.30
35497;DHT22;21609;49.298;6.844;2022-07-18T11:12:24;23.40;61.10
35497;DHT22;21609;49.298;6.844;2022-07-18T11:15:09;23.40;60.90
35497;DHT22;21609;49.298;6.844;2022-07-18T11:18:03;23.40;61.10
35497;DHT22;21609;49.298;6.844;2022-07-18T11:20:37;23.40;61.10
35497;DHT22;21609;49.298;6.844;2022-07-18T11:23:27;23.40;61.10
35497;DHT22;21609;49.298;6.844;2022-07-18T11:25:55;23.40;60.90
35497;DHT22;21609;49.298;6.844;2022-07-18T11:28:22;23.40;60.90
35497;DHT22;21609;49.298;6.844;2022-07-18T11:31:02;23.40;60.90
35497;DHT22;21609;49.298;6.844;2022-07-18T11:33:30;23.40;60.90
35497;DHT22;21609;49.298;6.844;2022-07-18T11:36:13;23.40;60.70
35497;DHT22;21609;49.298;6.844;2022-07-18T11:38:45;23.50;61.20
35497;DHT22;21609;49.298;6.844;2022-07-18T11:41:11;23.50;61.90
35497;DHT22;21609;49.298;6.844;2022-07-18T11:43:37;23.50;61.10
35497;DHT22;21609;49.298;6.844;2022-07-18T11:46:07;23.50;61.50
35497;DHT22;21609;49.298;6.844;2022-07-18T11:48:34;23.50;62.10
35497;DHT22;21609;49.298;6.844;2022-07-18T11:50:59;23.50;62.10
35497;DHT22;21609;49.298;6.844;2022-07-18T11:53:25;23.60;62.40
35497;DHT22;21609;49.298;6.844;2022-07-18T11:55:53;23.50;62.80
35497;DHT22;21609;49.298;6.844;2022-07-18T11:58:19;23.60;63.30
35497;DHT22;21609;49.298;6.844;2022-07-18T12:00:45;23.60;63.40
35497;DHT22;21609;49.298;6.844;2022-07-18T12:05:39;23.60;64.60
35497;DHT22;21609;49.298;6.844;2022-07-18T12:08:28;23.60;65.10
35497;DHT22;21609;49.298;6.844;2022-07-18T12:11:05;23.60;65.40
35497;DHT22;21609;49.298;6.844;2022-07-18T12:16:05;23.60;66.30
35497;DHT22;21609;49.298;6.844;2022-07-18T12:18:31;23.70;67.50
35497;DHT22;21609;49.298;6.844;2022-07-18T12:21:08;23.70;67.60
35497;DHT22;21609;49.298;6.844;2022-07-18T12:23:33;23.70;68.00
35497;DHT22;21609;49.298;6.844;2022-07-18T12:25:59;23.70;68.40
35497;DHT22;21609;49.298;6.844;2022-07-18T12:28:26;23.70;68.90
35497;DHT22;21609;49.298;6.844;2022-07-18T12:30:52;23.80;69.00
35497;DHT22;21609;49.298;6.844;2022-07-18T12:33:18;23.90;69.30
35497;DHT22;21609;49.298;6.844;2022-07-18T12:35:44;23.80;69.50
35497;DHT22;21609;49.298;6.844;2022-07-18T12:38:14;23.80;69.60
35497;DHT22;21609;49.298;6.844;2022-07-18T12:40:56;23.80;70.90
35497;DHT22;21609;49.298;6.844;2022-07-18T12:43:28;23.60;44.40
35497;DHT22;21609;49.298;6.844;2022-07-18T12:45:58;23.70;45.00
35497;DHT22;21609;49.298;6.844;2022-07-18T12:48:26;23.70;45.00
35497;DHT22;21609;49.298;6.844;2022-07-18T12:51:03;23.70;45.00
35497;DHT22;21609;49.298;6.844;2022-07-18T12:53:30;23.70;45.00
35497;DHT22;21609;49.298;6.844;2022-07-18T12:55:56;23.80;44.90
35497;DHT22;21609;49.298;6.844;2022-07-18T12:58:22;23.80;44.90
35497;DHT22;21609;49.298;6.844;2022-07-18T13:00:48;23.80;45.00
35497;DHT22;21609;49.298;6.844;2022-07-18T13:03:14;23.80;45.00
35497;DHT22;21609;49.298;6.844;2022-07-18T13:05:40;23.80;44.90
35497;DHT22;21609;49.298;6.844;2022-07-18T13:08:06;23.80;44.90
35497;DHT22;21609;49.298;6.844;2022-07-18T13:10:33;23.80;45.00
35497;DHT22;21609;49.298;6.844;2022-07-18T13:13:02;23.80;44.90
35497;DHT22;21609;49.298;6.844;2022-07-18T13:15:28;23.80;44.90
35497;DHT22;21609;49.298;6.844;2022-07-18T13:17:54;23.90;44.90
35497;DHT22;21609;49.298;6.844;2022-07-18T13:20:20;23.90;44.80
35497;DHT22;21609;49.298;6.844;2022-07-18T13:22:46;23.90;44.90
35497;DHT22;21609;49.298;6.844;2022-07-18T13:25:12;23.90;44.80
35497;DHT22;21609;49.298;6.844;2022-07-18T13:27:38;23.90;44.80
35497;DHT22;21609;49.298;6.844;2022-07-18T13:30:06;24.00;44.80
35497;DHT22;21609;49.298;6.844;2022-07-18T13:32:32;23.90;44.70
35497;DHT22;21609;49.298;6.844;2022-07-18T13:34:58;23.90;44.70
35497;DHT22;21609;49.298;6.844;2022-07-18T13:37:24;24.00;44.80
35497;DHT22;21609;49.298;6.844;2022-07-18T13:39:50;23.90;44.70
35497;DHT22;21609;49.298;6.844;2022-07-18T13:42:16;24.00;44.80
35497;DHT22;21609;49.298;6.844;2022-07-18T13:44:42;24.00;44.80
35497;DHT22;21609;49.298;6.844;2022-07-18T13:47:10;24.10;44.90
35497;DHT22;21609;49.298;6.844;2022-07-18T13:49:36;24.10;44.80
35497;DHT22;21609;49.298;6.844;2022-07-18T13:52:02;24.10;44.70
35497;DHT22;21609;49.298;6.844;2022-07-18T13:54:28;24.10;45.30
35497;DHT22;21609;49.298;6.844;2022-07-18T13:56:53;24.10;44.70
35497;DHT22;21609;49.298;6.844;2022-07-18T13:59:19;24.10;44.70
35497;DHT22;21609;49.298;6.844;2022-07-18T14:01:44;24.10;44.60
35497;DHT22;21609;49.298;6.844;2022-07-18T14:04:10;24.10;44.60
35497;DHT22;21609;49.298;6.844;2022-07-18T14:06:36;24.10;44.60
35497;DHT22;21609;49.298;6.844;2022-07-18T14:09:03;24.20;44.80
35497;DHT22;21609;49.298;6.844;2022-07-18T14:11:29;24.20;44.80
35497;DHT22;21609;49.298;6.844;2022-07-18T14:13:58;24.20;44.70
35497;DHT22;21609;49.298;6.844;2022-07-18T14:16:23;24.20;44.60
35497;DHT22;21609;49.298;6.844;2022-07-18T14:18:50;24.20;44.70
35497;DHT22;21609;49.298;6.844;2022-07-18T14:21:15;24.20;44.70
35497;DHT22;21609;49.298;6.844;2022-07-18T14:23:41;24.20;44.70
35497;DHT22;21609;49.298;6.844;2022-07-18T14:26:07;24.20;44.70
35497;DHT22;21609;49.298;6.844;2022-07-18T14:28:32;24.20;44.70
35497;DHT22;21609;49.298;6.844;2022-07-18T14:30:58;24.20;44.70
35497;DHT22;21609;49.298;6.844;2022-07-18T14:33:23;24.30;44.70
35497;DHT22;21609;49.298;6.844;2022-07-18T14:35:49;24.20;44.70
35497;DHT22;21609;49.298;6.844;2022-07-18T14:38:15;24.20;44.60
35497;DHT22;21609;49.298;6.844;2022-07-18T14:40:40;24.20;44.60
35497;DHT22;21609;49.298;6.844;2022-07-18T14:43:07;24.20;44.60
35497;DHT22;21609;49.298;6.844;2022-07-18T14:45:33;24.20;44.60
35497;DHT22;21609;49.298;6.844;2022-07-18T14:47:58;24.20;44.60
35497;DHT22;21609;49.298;6.844;2022-07-18T14:50:24;24.20;44.60
35497;DHT22;21609;49.298;6.844;2022-07-18T14:52:50;24.30;44.60
35497;DHT22;21609;49.298;6.844;2022-07-18T14:55:16;24.30;44.70
35497;DHT22;21609;49.298;6.844;2022-07-18T14:57:41;24.30;44.70
35497;DHT22;21609;49.298;6.844;2022-07-18T15:00:08;24.30;44.60
35497;DHT22;21609;49.298;6.844;2022-07-18T15:02:38;24.30;44.70
35497;DHT22;21609;49.298;6.844;2022-07-18T15:05:04;24.40;44.70
35497;DHT22;21609;49.298;6.844;2022-07-18T15:07:30;24.40;44.70
35497;DHT22;21609;49.298;6.844;2022-07-18T15:09:56;24.30;44.50
35497;DHT22;21609;49.298;6.844;2022-07-18T15:12:22;24.30;44.60
35497;DHT22;21609;49.298;6.844;2022-07-18T15:14:47;24.40;44.60
35497;DHT22;21609;49.298;6.844;2022-07-18T15:17:13;24.30;44.50
35497;DHT22;21609;49.298;6.844;2022-07-18T15:19:39;24.30;44.60
35497;DHT22;21609;49.298;6.844;2022-07-18T15:22:04;24.30;44.60
35497;DHT22;21609;49.298;6.844;2022-07-18T15:24:34;24.30;44.60
35497;DHT22;21609;49.298;6.844;2022-07-18T15:27:00;24.30;44.70
35497;DHT22;21609;49.298;6.844;2022-07-18T15:29:26;24.30;44.70
35497;DHT22;21609;49.298;6.844;2022-07-18T15:31:53;24.30;44.70
35497;DHT22;21609;49.298;6.844;2022-07-18T15:34:18;24.30;44.70
35497;DHT22;21609;49.298;6.844;2022-07-18T15:36:44;24.30;44.70
35497;DHT22;21609;49.298;6.844;2022-07-18T15:39:09;24.30;44.70
35497;DHT22;21609;49.298;6.844;2022-07-18T15:41:35;24.30;45.30
35497;DHT22;21609;49.298;6.844;2022-07-18T15:44:01;24.30;44.80
35497;DHT22;21609;49.298;6.844;2022-07-18T15:46:27;24.30;44.80
35497;DHT22;21609;49.298;6.844;2022-07-18T15:48:53;24.30;44.90
35497;DHT22;21609;49.298;6.844;2022-07-18T15:51:19;24.30;44.90
35497;DHT22;21609;49.298;6.844;2022-07-18T15:53:44;24.20;44.90
35497;DHT22;21609;49.298;6.844;2022-07-18T15:56:10;24.30;45.00
35497;DHT22;21609;49.298;6.844;2022-07-18T15:58:36;24.20;45.00
35497;DHT22;21609;49.298;6.844;2022-07-18T16:01:02;24.20;45.10
35497;DHT22;21609;49.298;6.844;2022-07-18T16:05:55;24.20;45.10